Terminal Aerodrome Forecast
Issued by NWS

Home | Current Version | Previous Version | Text Only | Print | Product List | Glossary On
Versions: 1 2 3 4 5 6 7 8 9 10 11 12 13 14
336
FTUS44 KLZK 090536
TAFPBF
TAF
KPBF 090536Z 0906/1006 31010KT P6SM SKC
     FM091500 31012G24KT P6SM SKC
     FM100000 32007KT P6SM SKC=

USA.gov is the U.S. government's official web portal to all federal, state and local government web resources and services.